< < Back
Terminal Aerodrome Forecast


Current Version              Previous Versions:   1  2  3  4  5  6  7  8  9  

Terminal Aerodrome Forecast

983
FTUS44 KMRX 312126 AAB
TAFCHA
TAF AMD
KCHA 312126Z 3121/0118 VRB06KT P6SM SCT050 BKN090
     FM312200 22010KT P6SM VCTS SCT045CB SCT100 BKN250
     FM010200 VRB03KT P6SM SCT050 BKN150
     FM010800 00000KT 4SM BR SCT020 SCT150 BKN200
     FM011300 VRB04KT P6SM FEW035 BKN250
     FM011700 21005KT P6SM SCT250=

Latest METAR

830
SAUS80 KWBC 010800 RRF
MTRCHA
METAR KCHA 010753Z 00000KT 10SM CLR 23/22 A3010 RMK AO2 SLP183 T02280217
$


USA.gov is the U.S. government's official web portal to all federal, state and local government web resources and services.